Time;durP1;ratioP1;P1;durP2;ratioP2;P2;SDS_P1;SDS_P2;PMS_P1;PMS_P2;Temp;Humidity;BMP_temperature;BMP_pressure;BME280_temperature;BME280_humidity;BME280_pressure;Samples;Min_cycle;Max_cycle;Signal;HPM_P1;HPM_P2
2023/11/13 00:00:37;;;;;;;3.47;2.00;;;;;;;6.20;100.00;101402.13;2595150;22;20157;-69
2023/11/13 00:01:38;;;;;;;5.10;2.70;;;;;;;6.30;100.00;101415.94;2595100;22;20158;-69
2023/11/13 00:02:40;;;;;;;3.60;2.27;;;;;;;5.47;100.00;101292.34;2595183;22;20153;-69
2023/11/13 00:03:40;;;;;;;4.05;2.10;;;;;;;6.33;100.00;101423.44;2595249;22;20147;-68
2023/11/13 00:04:41;;;;;;;3.53;2.23;;;;;;;5.96;100.00;101380.72;2595325;22;20236;-69
2023/11/13 00:05:41;;;;;;;4.47;2.30;;;;;;;6.27;100.00;101422.22;2595425;22;20147;-69
2023/11/13 00:06:42;;;;;;;4.83;2.20;;;;;;;6.28;100.00;101431.25;2594836;22;20157;-69
2023/11/13 00:07:42;;;;;;;4.57;1.70;;;;;;;6.25;100.00;101429.28;2595507;22;20151;-69
2023/11/13 00:08:43;;;;;;;4.87;2.40;;;;;;;6.20;100.00;101430.41;2595309;22;20158;-68
2023/11/13 00:09:43;;;;;;;3.37;2.37;;;;;;;5.39;100.00;101309.97;2595440;22;20152;-69
2023/11/13 00:10:43;;;;;;;5.63;2.50;;;;;;;6.14;100.00;101431.16;2595386;22;20152;-69
2023/11/13 00:11:44;;;;;;;4.83;2.30;;;;;;;6.15;100.00;101422.53;2594619;22;20490;-69
2023/11/13 00:12:44;;;;;;;8.47;2.60;;;;;;;6.10;100.00;101419.34;2595303;22;20154;-69
2023/11/13 00:13:45;;;;;;;4.10;2.47;;;;;;;6.14;100.00;101425.66;2594859;22;20160;-69
2023/11/13 00:14:45;;;;;;;3.60;1.87;;;;;;;6.15;100.00;101422.53;2595195;22;20160;-69
2023/11/13 00:15:46;;;;;;;3.10;1.80;;;;;;;6.16;100.00;101417.81;2595439;22;20150;-69
2023/11/13 00:16:46;;;;;;;4.03;2.53;;;;;;;6.16;100.00;101418.59;2594710;22;20157;-69
2023/11/13 00:17:47;;;;;;;3.77;2.00;;;;;;;6.16;100.00;101417.81;2581839;23;20164;-68
2023/11/13 00:18:48;;;;;;;4.50;2.53;;;;;;;6.11;100.00;101412.69;2581649;23;20654;-69
2023/11/13 00:19:49;;;;;;;5.53;3.38;;;;;;;6.15;100.00;101422.53;2595355;22;20565;-69
2023/11/13 00:20:49;;;;;;;3.27;2.17;;;;;;;6.17;100.00;101424.91;2595189;22;20150;-68
2023/11/13 00:21:50;;;;;;;3.67;2.13;;;;;;;6.18;100.00;101423.72;2581248;23;20157;-69
2023/11/13 00:22:50;;;;;;;6.40;2.67;;;;;;;6.16;100.00;101429.59;2581919;23;20211;-69
2023/11/13 00:23:51;;;;;;;4.03;2.60;;;;;;;6.18;100.00;101434.72;2581715;23;20612;-69
2023/11/13 00:24:51;;;;;;;3.83;2.10;;;;;;;6.11;100.00;101426.44;2581564;23;20150;-69
2023/11/13 00:25:52;;;;;;;5.27;2.30;;;;;;;6.13;100.00;101433.13;2595123;22;20203;-69
2023/11/13 00:26:52;;;;;;;4.23;2.73;;;;;;;6.02;100.00;101407.50;2594463;22;20150;-69
2023/11/13 00:27:52;;;;;;;4.17;2.77;;;;;;;6.11;100.00;101424.44;2595164;22;20149;-68
2023/11/13 00:28:53;;;;;;;5.17;3.37;;;;;;;5.86;100.00;101389.69;2595255;22;20595;-69
2023/11/13 00:29:54;;;;;;;6.80;3.63;;;;;;;6.07;100.00;101433.88;2595466;22;20150;-69
2023/11/13 00:30:54;;;;;;;4.60;3.10;;;;;;;6.06;100.00;101433.06;2595183;22;20149;-69
2023/11/13 00:31:55;;;;;;;8.17;2.93;;;;;;;6.05;100.00;101431.50;2594777;22;20152;-69
2023/11/13 00:32:55;;;;;;;6.43;2.87;;;;;;;5.84;100.00;101423.06;2595161;22;20475;-69
2023/11/13 00:33:56;;;;;;;6.17;3.03;;;;;;;5.94;100.00;101430.63;2595297;22;20149;-69
2023/11/13 00:34:57;;;;;;;4.63;2.80;;;;;;;5.97;100.00;101432.63;2595141;22;20537;-69
2023/11/13 00:35:57;;;;;;;6.93;3.72;;;;;;;6.02;100.00;101442.47;2595348;22;20614;-69
2023/11/13 00:36:58;;;;;;;6.47;3.47;;;;;;;6.04;100.00;101442.88;2594557;22;20556;-69
2023/11/13 00:37:58;;;;;;;5.70;3.20;;;;;;;5.96;100.00;101433.81;2595436;22;20171;-69
2023/11/13 00:38:59;;;;;;;6.10;3.60;;;;;;;6.08;100.00;101443.69;2595030;22;20167;-69
2023/11/13 00:39:59;;;;;;;5.97;3.90;;;;;;;6.09;100.00;101443.31;2595142;22;20145;-69
2023/11/13 00:40:59;;;;;;;9.03;3.80;;;;;;;6.10;100.00;101444.13;2595015;22;20151;-69
2023/11/13 00:42:00;;;;;;;5.30;3.23;;;;;;;5.61;100.00;101366.69;2594546;22;20223;-69
2023/11/13 00:43:01;;;;;;;4.57;2.87;;;;;;;6.03;100.00;101430.28;2581581;23;20247;-69
2023/11/13 00:44:02;;;;;;;10.20;3.37;;;;;;;6.12;100.00;101441.78;2582057;22;20556;-69
2023/11/13 00:45:04;;;;;;;4.47;3.15;;;;;;;5.97;100.00;101421.63;2595033;22;20156;-69
2023/11/13 00:46:06;;;;;;;4.80;2.90;;;;;;;6.13;100.00;101429.59;2595624;22;20144;-69
2023/11/13 00:47:06;;;;;;;6.55;3.55;;;;;;;5.73;100.00;101380.94;2594479;22;20154;-69
2023/11/13 00:48:07;;;;;;;5.43;3.63;;;;;;;6.12;100.00;101442.56;2595183;22;20151;-69
2023/11/13 00:49:07;;;;;;;7.63;3.47;;;;;;;6.13;100.00;101441.38;2595042;22;20173;-69
2023/11/13 00:50:11;;;;;;;6.37;3.67;;;;;;;5.90;100.00;101396.78;2595374;22;20527;-69
2023/11/13 00:51:13;;;;;;;6.18;3.35;;;;;;;6.13;100.00;101440.59;2595102;22;20230;-69
2023/11/13 00:52:14;;;;;;;4.70;3.00;;;;;;;6.11;100.00;101437.44;2594685;22;20623;-69
2023/11/13 00:53:14;;;;;;;6.50;3.87;;;;;;;6.10;100.00;101442.16;2595218;22;20495;-69
2023/11/13 00:54:15;;;;;;;6.10;3.33;;;;;;;5.33;100.00;101319.72;2595224;22;20656;-69
2023/11/13 00:55:15;;;;;;;4.13;3.00;;;;;;;5.43;100.00;101341.78;2595017;22;20149;-69
2023/11/13 00:56:16;;;;;;;4.30;2.80;;;;;;;6.12;100.00;101441.78;2594711;22;20596;-69
2023/11/13 00:57:17;;;;;;;4.27;2.50;;;;;;;6.14;100.00;101440.22;2593979;22;20595;-69
2023/11/13 00:58:18;;;;;;;5.83;2.50;;;;;;;6.14;100.00;101428.41;2595373;22;20175;-69
2023/11/13 00:59:18;;;;;;;3.73;2.33;;;;;;;6.17;100.00;101433.16;2594945;22;20203;-68
2023/11/13 01:00:19;;;;;;;6.77;2.53;;;;;;;5.71;100.00;101363.22;2595196;22;20394;-69
2023/11/13 01:01:20;;;;;;;4.75;2.88;;;;;;;5.73;100.00;101371.88;2595031;22;20179;-69
2023/11/13 01:02:23;;;;;;;2.78;1.80;;;;;;;6.11;100.00;101431.94;2594616;22;20549;-69
2023/11/13 01:03:24;;;;;;;3.20;1.90;;;;;;;6.09;100.00;101426.81;2595078;22;20598;-69
2023/11/13 01:04:24;;;;;;;3.00;1.80;;;;;;;6.09;100.00;101434.25;2595073;22;20384;-69
2023/11/13 01:05:24;;;;;;;2.13;1.53;;;;;;;6.09;100.00;101423.25;2595163;22;20591;-69
2023/11/13 01:06:25;;;;;;;4.03;1.57;;;;;;;6.15;100.00;101421.75;2594510;22;20572;-69
2023/11/13 01:07:26;;;;;;;4.60;2.57;;;;;;;6.14;100.00;101426.44;2595239;22;20161;-69
2023/11/13 01:08:27;;;;;;;6.87;3.07;;;;;;;5.50;100.00;101325.38;2595204;22;20192;-69
2023/11/13 01:09:27;;;;;;;5.70;2.60;;;;;;;6.13;100.00;101426.81;2595068;22;20154;-69
2023/11/13 01:10:28;;;;;;;4.77;2.80;;;;;;;6.13;100.00;101429.59;2595048;22;20603;-69
2023/11/13 01:11:28;;;;;;;5.27;2.77;;;;;;;6.13;100.00;101424.88;2594828;22;20603;-69
2023/11/13 01:12:29;;;;;;;7.10;2.67;;;;;;;5.71;100.00;101364.03;2580928;23;20244;-68
2023/11/13 01:13:30;;;;;;;3.73;2.10;;;;;;;6.14;100.00;101428.41;2581830;23;20152;-69
2023/11/13 01:14:31;;;;;;;5.45;2.40;;;;;;;6.11;100.00;101423.69;2594653;22;20165;-69
2023/11/13 01:15:31;;;;;;;4.50;2.60;;;;;;;6.10;100.00;101425.63;2594843;22;20194;-69
2023/11/13 01:16:32;;;;;;;3.63;2.20;;;;;;;6.09;100.00;101421.31;2594462;22;20764;-69
2023/11/13 01:17:33;;;;;;;3.40;2.00;;;;;;;6.07;100.00;101423.66;2595212;22;20182;-69
2023/11/13 01:18:33;;;;;;;3.77;2.30;;;;;;;5.70;100.00;101378.91;2594905;22;20147;-69
2023/11/13 01:19:34;;;;;;;3.70;2.40;;;;;;;6.00;100.00;101412.59;2595222;22;20177;-69
2023/11/13 01:20:34;;;;;;;3.13;2.07;;;;;;;5.93;100.00;101411.75;2594961;22;20248;-69
2023/11/13 01:21:35;;;;;;;3.07;1.47;;;;;;;5.90;100.00;101420.78;2594952;22;20233;-71
2023/11/13 01:22:35;;;;;;;5.00;2.37;;;;;;;5.89;100.00;101421.97;2594698;22;20617;-71
2023/11/13 01:23:36;;;;;;;2.80;1.77;;;;;;;5.74;100.00;101395.47;2595081;22;20157;-71
2023/11/13 01:24:36;;;;;;;5.40;2.33;;;;;;;5.88;100.00;101418.41;2594949;22;20469;-71
2023/11/13 01:25:37;;;;;;;2.93;2.10;;;;;;;5.85;100.00;101418.38;2594767;22;20209;-71
2023/11/13 01:26:37;;;;;;;3.97;2.23;;;;;;;5.84;100.00;101420.31;2594360;22;20159;-71
2023/11/13 01:27:38;;;;;;;3.70;2.10;;;;;;;5.83;100.00;101429.75;2595189;22;20151;-71
2023/11/13 01:28:40;;;;;;;3.60;2.60;;;;;;;5.79;100.00;101426.16;2594923;22;20201;-71
2023/11/13 01:29:40;;;;;;;3.38;2.15;;;;;;;5.75;100.00;101424.56;2595060;22;20608;-71
2023/11/13 01:30:41;;;;;;;2.67;1.70;;;;;;;5.73;100.00;101426.88;2595034;22;20601;-69
2023/11/13 01:31:44;;;;;;;3.67;2.23;;;;;;;5.67;100.00;101429.19;2594139;22;20176;-69
2023/11/13 01:32:46;;;;;;;3.55;2.10;;;;;;;4.92;100.00;101315.44;2595019;22;20509;-69
2023/11/13 01:33:46;;;;;;;3.40;1.80;;;;;;;5.58;100.00;101420.47;2595111;22;20652;-69
2023/11/13 01:34:47;;;;;;;2.83;1.80;;;;;;;5.57;100.00;101418.91;2595007;22;20550;-69
2023/11/13 01:35:48;;;;;;;3.83;1.67;;;;;;;4.66;100.00;101288.09;2595141;22;20151;-69
2023/11/13 01:36:49;;;;;;;3.88;1.95;;;;;;;5.49;100.00;101427.47;2594218;22;20239;-69
2023/11/13 01:37:49;;;;;;;4.17;2.23;;;;;;;5.46;100.00;101434.50;2595068;22;20155;-69
2023/11/13 01:38:50;;;;;;;3.07;1.83;;;;;;;5.44;100.00;101431.34;2594718;22;20151;-69
2023/11/13 01:39:50;;;;;;;2.87;1.73;;;;;;;5.41;100.00;101429.34;2594283;22;20157;-69
2023/11/13 01:40:51;;;;;;;2.70;1.70;;;;;;;5.40;100.00;101433.28;2594901;22;20161;-68
2023/11/13 01:41:52;;;;;;;2.40;1.53;;;;;;;4.86;100.00;101347.13;2594483;22;20175;-69
2023/11/13 01:42:52;;;;;;;4.37;2.07;;;;;;;5.31;100.00;101423.75;2594950;22;20405;-69
2023/11/13 01:43:53;;;;;;;3.37;2.00;;;;;;;5.35;100.00;101428.13;2595211;22;20547;-69
2023/11/13 01:44:55;;;;;;;3.00;1.60;;;;;;;5.34;100.00;101434.75;2594621;22;20148;-69
2023/11/13 01:45:58;;;;;;;3.92;1.92;;;;;;;5.24;100.00;101432.69;2595091;22;20158;-69
2023/11/13 01:46:58;;;;;;;5.60;1.83;;;;;;;5.32;100.00;101450.06;2594415;22;20179;-69
2023/11/13 01:48:00;;;;;;;3.97;2.10;;;;;;;5.30;100.00;101447.69;2595110;22;20152;-68
2023/11/13 01:49:03;;;;;;;3.78;1.58;;;;;;;4.95;100.00;101405.28;2594752;22;20147;-69
2023/11/13 01:50:04;;;;;;;2.42;1.52;;;;;;;5.31;100.00;101448.47;2595189;22;20148;-69
2023/11/13 01:51:05;;;;;;;3.72;1.77;;;;;;;5.30;100.00;101447.69;2594815;22;20149;-69
2023/11/13 01:52:07;;;;;;;2.40;1.60;;;;;;;4.27;100.00;101289.59;2594574;22;20144;-69
2023/11/13 01:53:09;;;;;;;2.92;1.30;;;;;;;5.25;100.00;101448.03;2594962;22;20158;-69
2023/11/13 01:54:10;;;;;;;2.60;1.58;;;;;;;5.16;100.00;101433.81;2594695;22;20194;-69
2023/11/13 01:55:11;;;;;;;4.17;1.70;;;;;;;5.16;100.00;101444.78;2594882;22;20146;-69
2023/11/13 01:56:12;;;;;;;2.63;1.70;;;;;;;4.61;100.00;101373.53;2594547;22;20150;-69
2023/11/13 01:57:13;;;;;;;3.93;1.60;;;;;;;5.18;100.00;101461.69;2594895;22;20148;-69
2023/11/13 01:58:15;;;;;;;3.13;1.50;;;;;;;5.20;100.00;101461.31;2594969;22;20143;-69
2023/11/13 01:59:17;;;;;;;1.45;1.10;;;;;;;5.16;100.00;101468.72;2594661;22;20183;-69
2023/11/13 02:00:17;;;;;;;1.33;0.93;;;;;;;5.15;100.00;101475.38;2594859;22;20148;-69
2023/11/13 02:01:18;;;;;;;2.63;1.40;;;;;;;5.10;100.00;101475.72;2594946;22;20190;-69
2023/11/13 02:02:19;;;;;;;2.57;1.30;;;;;;;5.03;100.00;101472.91;2594404;22;20179;-69
2023/11/13 02:03:20;;;;;;;2.78;1.65;;;;;;;5.00;100.00;101457.94;2594807;22;20151;-69
2023/11/13 02:04:21;;;;;;;3.13;1.60;;;;;;;5.09;100.00;101476.88;2594995;22;20151;-69
2023/11/13 02:05:22;;;;;;;5.80;1.50;;;;;;;5.08;100.00;101478.06;2594753;22;20436;-69
2023/11/13 02:06:22;;;;;;;8.83;2.00;;;;;;;5.03;100.00;101481.91;2594374;22;20151;-69
2023/11/13 02:07:23;;;;;;;7.23;1.80;;;;;;;4.54;100.00;101417.34;2594919;22;20385;-69
2023/11/13 02:08:23;;;;;;;6.77;1.63;;;;;;;4.98;100.00;101476.75;2594470;22;20549;-69
2023/11/13 02:09:25;;;;;;;1.47;0.90;;;;;;;4.91;100.00;101473.13;2594749;22;20150;-69
2023/11/13 02:10:26;;;;;;;1.80;1.27;;;;;;;4.82;100.00;101462.44;2595078;22;20662;-69
2023/11/13 02:11:28;;;;;;;4.00;1.60;;;;;;;4.98;100.00;101485.00;2594891;22;20158;-69
2023/11/13 02:12:29;;;;;;;3.05;1.38;;;;;;;4.97;100.00;101488.13;2594074;22;20159;-69
2023/11/13 02:13:29;;;;;;;1.40;0.97;;;;;;;4.96;100.00;101492.81;2594943;22;20159;-69
2023/11/13 02:14:31;;;;;;;1.60;1.10;;;;;;;4.92;100.00;101486.50;2594678;22;20234;-69
2023/11/13 02:15:31;;;;;;;2.42;1.45;;;;;;;4.73;100.00;101459.16;2594840;22;20232;-68
2023/11/13 02:16:33;;;;;;;2.90;1.20;;;;;;;4.93;100.00;101495.53;2594330;22;20166;-69
2023/11/13 02:17:33;;;;;;;1.73;1.23;;;;;;;4.92;100.00;101494.72;2595037;22;20550;-69
2023/11/13 02:18:37;;;;;;;2.77;1.20;;;;;;;4.92;100.00;101489.22;2594735;22;20148;-68
2023/11/13 02:19:37;;;;;;;4.20;1.33;;;;;;;4.91;100.00;101493.16;2594780;22;20220;-69
2023/11/13 02:20:38;;;;;;;2.80;1.07;;;;;;;4.91;100.00;101492.34;2594634;22;20165;-68
2023/11/13 02:21:38;;;;;;;1.87;1.20;;;;;;;4.88;100.00;101498.59;2594690;22;20585;-69
2023/11/13 02:22:39;;;;;;;10.33;1.47;;;;;;;4.87;100.00;101506.03;2594454;22;20645;-69
2023/11/13 02:23:39;;;;;;;3.83;1.80;;;;;;;4.86;100.00;101511.91;2594869;22;20212;-69
2023/11/13 02:24:39;;;;;;;2.13;1.10;;;;;;;4.84;100.00;101512.28;2594619;22;20147;-69
2023/11/13 02:25:49;;;;;;;3.10;1.57;;;;;;;4.86;100.00;101520.94;2594788;22;20195;-69
2023/11/13 02:26:49;;;;;;;1.85;1.20;;;;;;;4.86;100.00;101522.88;2594040;22;20216;-69
2023/11/13 02:28:00;;;;;;;3.77;1.17;;;;;;;4.26;100.00;101442.44;2594753;22;20151;-69
2023/11/13 02:29:01;;;;;;;6.18;1.40;;;;;;;4.84;100.00;101536.22;2594760;22;20130;-69
2023/11/13 02:30:02;;;;;;;4.53;1.40;;;;;;;4.80;100.00;101540.84;2594966;22;20181;-69
2023/11/13 02:31:02;;;;;;;1.73;1.20;;;;;;;4.76;100.00;101540.81;2594756;22;20170;-69
2023/11/13 02:32:03;;;;;;;3.67;1.33;;;;;;;4.80;100.00;101541.66;2594392;22;20161;-69
2023/11/13 02:33:04;;;;;;;9.73;1.63;;;;;;;4.86;100.00;101548.41;2594645;22;20647;-69
2023/11/13 02:34:05;;;;;;;2.17;1.10;;;;;;;4.82;100.00;101542.06;2594719;22;20181;-69
2023/11/13 02:35:06;;;;;;;2.57;1.30;;;;;;;4.86;100.00;101542.91;2594772;22;20174;-69
2023/11/13 02:36:07;;;;;;;2.58;1.30;;;;;;;4.86;100.00;101542.91;2594868;22;20144;-69
2023/11/13 02:37:07;;;;;;;3.65;1.33;;;;;;;4.85;100.00;101538.59;2593887;22;20349;-69
2023/11/13 02:38:08;;;;;;;2.13;1.00;;;;;;;4.00;100.00;101403.28;2594953;22;20689;-69
2023/11/13 02:39:09;;;;;;;1.42;0.85;;;;;;;4.92;100.00;101532.41;2594587;22;20182;-68
2023/11/13 02:40:10;;;;;;;2.67;1.20;;;;;;;4.86;100.00;101523.69;2594919;22;20143;-69
2023/11/13 02:41:10;;;;;;;1.92;1.10;;;;;;;4.91;100.00;101530.81;2594561;22;20225;-68
2023/11/13 02:42:11;;;;;;;2.17;1.10;;;;;;;4.94;100.00;101530.88;2594210;22;20143;-69
2023/11/13 02:43:11;;;;;;;3.70;1.20;;;;;;;4.98;100.00;101526.19;2594742;22;20496;-69
2023/11/13 02:44:13;;;;;;;1.67;0.93;;;;;;;5.00;100.00;101534.06;2594888;22;20185;-69
2023/11/13 02:45:13;;;;;;;2.25;1.40;;;;;;;4.99;100.00;101521.50;2594672;22;20556;-69
2023/11/13 02:46:14;;;;;;;2.73;1.30;;;;;;;4.69;100.00;101468.53;2594324;22;20147;-69
2023/11/13 02:47:14;;;;;;;2.00;1.00;;;;;;;5.12;100.00;101533.84;2594749;22;20172;-69
2023/11/13 02:48:15;;;;;;;3.60;1.20;;;;;;;5.16;100.00;101535.47;2594761;22;20222;-68
2023/11/13 02:49:15;;;;;;;6.30;1.40;;;;;;;5.22;100.00;101527.66;2594615;22;20222;-69
2023/11/13 02:50:16;;;;;;;8.13;1.30;;;;;;;5.24;100.00;101530.84;2594956;22;20179;-69
2023/11/13 02:51:17;;;;;;;8.50;1.70;;;;;;;5.20;100.00;101519.81;2593902;22;20438;-68
2023/11/13 02:52:17;;;;;;;2.67;1.30;;;;;;;5.30;100.00;101534.84;2594291;22;20208;-69
2023/11/13 02:53:17;;;;;;;2.70;1.37;;;;;;;5.29;100.00;101531.28;2594721;22;20231;-69
2023/11/13 02:54:19;;;;;;;4.77;1.80;;;;;;;5.09;100.00;101518.91;2594692;22;20225;-69
2023/11/13 02:55:20;;;;;;;3.67;1.40;;;;;;;5.35;100.00;101535.31;2594571;22;20155;-69
2023/11/13 02:56:20;;;;;;;5.63;1.30;;;;;;;5.24;100.00;101526.13;2594302;22;20149;-69
2023/11/13 02:57:22;;;;;;;3.77;1.83;;;;;;;4.24;100.00;101376.19;2594653;22;20154;-69
2023/11/13 02:58:22;;;;;;;4.15;1.50;;;;;;;5.41;100.00;101539.31;2594846;22;20242;-69
2023/11/13 02:59:23;;;;;;;2.50;1.07;;;;;;;5.25;100.00;101515.94;2594687;22;20179;-69
2023/11/13 03:00:23;;;;;;;2.33;1.40;;;;;;;5.44;100.00;101549.53;2594707;22;20147;-69
2023/11/13 03:01:24;;;;;;;1.67;1.30;;;;;;;5.46;100.00;101543.66;2594731;22;20148;-69
2023/11/13 03:02:24;;;;;;;1.47;1.00;;;;;;;5.48;100.00;101544.09;2594213;22;20497;-69
2023/11/13 03:03:26;;;;;;;2.80;1.50;;;;;;;5.48;100.00;101553.13;2594604;22;20153;-69
2023/11/13 03:04:26;;;;;;;2.60;1.55;;;;;;;5.50;100.00;101542.56;2594691;22;20155;-69
2023/11/13 03:05:27;;;;;;;1.97;1.10;;;;;;;4.88;100.00;101436.22;2594497;22;20192;-69
2023/11/13 03:06:27;;;;;;;3.63;1.40;;;;;;;5.63;100.00;101538.38;2594003;22;20234;-69
2023/11/13 03:07:29;;;;;;;2.27;1.17;;;;;;;5.61;100.00;101548.97;2594879;22;20155;-69
2023/11/13 03:08:29;;;;;;;4.05;1.48;;;;;;;5.61;100.00;101548.97;2594629;22;20165;-69
2023/11/13 03:09:30;;;;;;;4.30;1.50;;;;;;;5.61;100.00;101556.41;2594720;22;20156;-69
2023/11/13 03:10:31;;;;;;;4.00;1.20;;;;;;;5.58;100.00;101555.19;2594607;22;20156;-69
2023/11/13 03:11:31;;;;;;;2.33;1.50;;;;;;;5.49;100.00;101540.19;2594786;22;20148;-69
2023/11/13 03:12:32;;;;;;;5.03;1.47;;;;;;;5.61;100.00;101557.22;2593953;22;20148;-69
2023/11/13 03:13:33;;;;;;;2.53;1.20;;;;;;;5.65;100.00;101557.25;2594965;22;20214;-69
2023/11/13 03:14:33;;;;;;;1.70;1.03;;;;;;;5.66;100.00;101556.88;2594675;22;20196;-69
2023/11/13 03:15:34;;;;;;;3.07;1.33;;;;;;;5.67;100.00;101554.91;2581233;23;20541;-69
2023/11/13 03:16:35;;;;;;;3.00;1.57;;;;;;;5.69;100.00;101547.84;2580581;23;20156;-69
2023/11/13 03:17:35;;;;;;;1.97;1.10;;;;;;;5.25;100.00;101466.47;2594892;22;20177;-69
2023/11/13 03:18:36;;;;;;;3.10;1.40;;;;;;;5.75;100.00;101543.59;2594528;22;20226;-68
2023/11/13 03:19:36;;;;;;;3.67;1.20;;;;;;;5.79;100.00;101538.91;2594175;22;20211;-69
2023/11/13 03:20:37;;;;;;;1.53;1.00;;;;;;;4.88;100.00;101386.00;2593483;22;20147;-68
2023/11/13 03:21:37;;;;;;;4.90;1.10;;;;;;;5.87;100.00;101545.31;2594498;22;20188;-69
2023/11/13 03:22:37;;;;;;;6.93;1.53;;;;;;;5.95;100.00;101534.00;2594722;22;20161;-69
2023/11/13 03:23:38;;;;;;;1.87;1.30;;;;;;;4.97;100.00;101381.78;2594771;22;20151;-69
2023/11/13 03:24:39;;;;;;;3.93;1.07;;;;;;;5.86;100.00;101521.72;2594334;22;20149;-69
2023/11/13 03:25:40;;;;;;;2.00;1.13;;;;;;;5.96;100.00;101521.84;2594586;22;20198;-69
2023/11/13 03:26:41;;;;;;;3.03;1.58;;;;;;;5.82;100.00;101515.41;2594058;22;20502;-69
2023/11/13 03:27:41;;;;;;;2.30;1.03;;;;;;;5.57;100.00;101476.63;2594776;22;20158;-68
2023/11/13 03:28:42;;;;;;;9.30;1.43;;;;;;;5.13;100.00;101420.81;2594648;22;20158;-69
2023/11/13 03:29:42;;;;;;;2.20;1.20;;;;;;;5.89;100.00;101524.50;2594839;22;20196;-69
2023/11/13 03:30:43;;;;;;;4.53;1.30;;;;;;;5.88;100.00;101522.94;2594591;22;20155;-69
2023/11/13 03:31:43;;;;;;;2.80;1.30;;;;;;;5.84;100.00;101521.34;2594102;22;20175;-69
2023/11/13 03:32:44;;;;;;;1.83;1.27;;;;;;;5.80;100.00;101518.53;2594698;22;20154;-69
2023/11/13 03:33:44;;;;;;;2.13;1.30;;;;;;;5.81;100.00;101535.81;2594796;22;20581;-68
2023/11/13 03:34:45;;;;;;;2.83;1.00;;;;;;;5.76;100.00;101528.69;2593885;22;20154;-69
2023/11/13 03:35:45;;;;;;;2.47;1.30;;;;;;;5.76;100.00;101528.69;2594117;22;20150;-69
2023/11/13 03:36:46;;;;;;;3.97;1.30;;;;;;;5.78;100.00;101531.03;2594146;22;20470;-69
2023/11/13 03:37:46;;;;;;;2.57;1.17;;;;;;;5.81;100.00;101522.88;2594738;22;20559;-69
2023/11/13 03:38:47;;;;;;;2.90;1.40;;;;;;;5.82;100.00;101526.41;2595232;22;20450;-68
2023/11/13 03:39:47;;;;;;;4.90;1.67;;;;;;;5.72;100.00;101497.59;2595464;22;20244;-69
2023/11/13 03:40:48;;;;;;;11.07;1.50;;;;;;;5.93;100.00;101513.53;2595329;22;20161;-69
2023/11/13 03:41:48;;;;;;;7.40;1.27;;;;;;;5.54;100.00;101457.38;2595115;22;20178;-69
2023/11/13 03:42:49;;;;;;;2.43;1.27;;;;;;;5.98;100.00;101508.50;2595345;22;20151;-69
2023/11/13 03:43:49;;;;;;;3.07;1.23;;;;;;;5.44;100.00;101439.56;2595608;22;20543;-69
2023/11/13 03:44:50;;;;;;;2.97;1.70;;;;;;;6.04;100.00;101525.41;2595195;22;20242;-69
2023/11/13 03:45:50;;;;;;;4.63;1.30;;;;;;;6.07;100.00;101533.72;2595601;22;20597;-69
2023/11/13 03:46:51;;;;;;;4.33;1.13;;;;;;;6.09;100.00;101542.38;2594737;22;20597;-69
2023/11/13 03:47:52;;;;;;;6.72;1.77;;;;;;;6.09;100.00;101544.34;2595557;22;20147;-69
2023/11/13 03:48:52;;;;;;;4.23;1.87;;;;;;;6.12;100.00;101547.16;2594660;22;20238;-69
2023/11/13 03:49:53;;;;;;;3.93;1.20;;;;;;;6.15;100.00;101553.84;2595676;22;20218;-69
2023/11/13 03:50:53;;;;;;;2.23;1.30;;;;;;;5.39;100.00;101426.19;2595398;22;20640;-69
2023/11/13 03:51:54;;;;;;;2.03;1.10;;;;;;;6.17;100.00;101546.00;2594868;22;20514;-69
2023/11/13 03:52:55;;;;;;;2.40;1.40;;;;;;;6.04;100.00;101547.44;2595307;22;20147;-69
2023/11/13 03:53:55;;;;;;;3.10;1.53;;;;;;;6.01;100.00;101548.22;2595544;22;20154;-69
2023/11/13 03:54:55;;;;;;;4.43;1.13;;;;;;;5.84;100.00;101530.34;2595246;22;20154;-69
2023/11/13 03:55:56;;;;;;;2.47;1.10;;;;;;;5.89;100.00;101545.75;2595661;22;20148;-69
2023/11/13 03:56:58;;;;;;;1.67;1.00;;;;;;;5.61;100.00;101515.97;2594782;22;20233;-69
2023/11/13 03:57:59;;;;;;;1.42;1.00;;;;;;;5.84;100.00;101549.63;2595584;22;20194;-69
2023/11/13 03:58:59;;;;;;;3.10;1.37;;;;;;;5.10;100.00;101434.50;2595121;22;20162;-69
2023/11/13 04:00:00;;;;;;;2.43;1.10;;;;;;;5.85;100.00;101551.19;2595354;22;20151;-69
2023/11/13 04:01:00;;;;;;;1.63;1.00;;;;;;;5.88;100.00;101552.41;2594908;22;20154;-69
2023/11/13 04:02:01;;;;;;;1.57;1.00;;;;;;;5.89;100.00;101549.28;2595010;22;20205;-69
2023/11/13 04:03:01;;;;;;;1.97;1.10;;;;;;;4.98;100.00;101405.31;2594832;22;20277;-69
2023/11/13 04:04:02;;;;;;;2.20;1.20;;;;;;;5.96;100.00;101557.59;2595486;22;20269;-69
2023/11/13 04:05:04;;;;;;;1.60;1.10;;;;;;;5.98;100.00;101551.72;2595157;22;20152;-69
2023/11/13 04:06:05;;;;;;;1.52;1.17;;;;;;;6.04;100.00;101562.00;2595422;22;20144;-69
2023/11/13 04:07:05;;;;;;;4.73;1.20;;;;;;;6.05;100.00;101560.81;2594527;22;20147;-69
2023/11/13 04:08:05;;;;;;;5.13;1.17;;;;;;;6.05;100.00;101560.03;2595523;22;20143;-69
2023/11/13 04:09:06;;;;;;;3.60;1.17;;;;;;;6.04;100.00;101552.94;2595291;22;20590;-69
2023/11/13 04:10:13;;;;;;;1.50;1.10;;;;;;;5.17;100.00;101418.09;2595539;22;20170;-69
2023/11/13 04:11:13;;;;;;;2.10;1.00;;;;;;;5.25;100.00;101433.50;2595314;22;20459;-69
2023/11/13 04:12:14;;;;;;;4.23;1.30;;;;;;;6.03;100.00;101557.66;2594834;22;20250;-69
2023/11/13 04:13:14;;;;;;;6.80;1.30;;;;;;;6.01;100.00;101553.72;2595131;22;20150;-69
2023/11/13 04:14:15;;;;;;;1.63;0.97;;;;;;;6.03;100.00;101548.59;2595477;22;20539;-69
2023/11/13 04:15:15;;;;;;;1.37;0.80;;;;;;;6.05;100.00;101555.31;2595137;22;20144;-69
2023/11/13 04:16:16;;;;;;;3.90;1.03;;;;;;;6.08;100.00;101540.81;2594917;22;20151;-69
2023/11/13 04:17:16;;;;;;;2.37;1.37;;;;;;;6.02;100.00;101545.09;2594925;22;20157;-69
2023/11/13 04:18:17;;;;;;;3.23;1.10;;;;;;;5.76;100.00;101501.19;2595288;22;20162;-69
2023/11/13 04:19:17;;;;;;;3.43;1.40;;;;;;;6.06;100.00;101547.88;2595149;22;20657;-69
2023/11/13 04:20:21;;;;;;;3.67;1.40;;;;;;;6.12;100.00;101549.91;2595290;22;20158;-69
2023/11/13 04:21:21;;;;;;;2.53;1.20;;;;;;;6.11;100.00;101545.53;2595155;22;20147;-69
2023/11/13 04:22:22;;;;;;;2.73;1.37;;;;;;;6.12;100.00;101557.34;2594712;22;20147;-69
2023/11/13 04:23:26;;;;;;;3.97;1.67;;;;;;;6.11;100.00;101564.03;2581721;23;20238;-69
2023/11/13 04:24:26;;;;;;;3.13;1.40;;;;;;;6.04;100.00;101553.75;2582626;22;20148;-69
2023/11/13 04:25:27;;;;;;;9.40;1.47;;;;;;;6.04;100.00;101550.19;2595060;22;20277;-69
2023/11/13 04:26:27;;;;;;;7.57;1.47;;;;;;;6.04;100.00;101563.94;2594723;22;20166;-68
2023/11/13 04:27:29;;;;;;;2.60;1.40;;;;;;;6.00;100.00;101563.13;2595416;22;20155;-69
2023/11/13 04:28:32;;;;;;;2.20;1.13;;;;;;;5.98;100.00;101568.22;2595050;22;20154;-69
2023/11/13 04:29:33;;;;;;;2.33;1.10;;;;;;;5.98;100.00;101573.72;2595318;22;20169;-69
2023/11/13 04:30:33;;;;;;;1.23;0.93;;;;;;;5.97;100.00;101578.44;2595177;22;20147;-69
2023/11/13 04:31:34;;;;;;;2.30;1.20;;;;;;;5.78;100.00;101550.28;2594570;22;20148;-69
2023/11/13 04:32:35;;;;;;;1.70;1.00;;;;;;;6.03;100.00;101576.13;2595089;22;20217;-69
2023/11/13 04:33:35;;;;;;;1.53;1.20;;;;;;;5.65;100.00;101502.25;2595412;22;20155;-69
2023/11/13 04:34:36;;;;;;;3.47;1.27;;;;;;;6.13;100.00;101579.00;2595106;22;20398;-69
2023/11/13 04:35:36;;;;;;;2.50;1.60;;;;;;;6.16;100.00;101577.44;2595469;22;20151;-69
2023/11/13 04:36:46;;;;;;;4.10;1.40;;;;;;;6.16;100.00;101580.97;2594539;22;20154;-68
2023/11/13 04:37:47;;;;;;;7.05;1.45;;;;;;;6.18;100.00;101572.34;2595422;22;20218;-69
2023/11/13 04:38:47;;;;;;;5.80;1.10;;;;;;;6.21;100.00;101580.63;2595228;22;20162;-69
2023/11/13 04:39:48;;;;;;;2.10;1.17;;;;;;;6.17;100.00;101574.31;2595189;22;20193;-69
2023/11/13 04:40:48;;;;;;;6.00;1.43;;;;;;;5.94;100.00;101528.91;2595214;22;20151;-69
2023/11/13 04:41:48;;;;;;;4.87;1.37;;;;;;;6.30;100.00;101575.59;2581441;23;20204;-69
2023/11/13 04:42:49;;;;;;;2.33;1.43;;;;;;;6.27;100.00;101581.06;2581643;23;20652;-69